Time;durP1;ratioP1;P1;durP2;ratioP2;P2;SDS_P1;SDS_P2;PMS_P1;PMS_P2;Temp;Humidity;BMP_temperature;BMP_pressure;BME280_temperature;BME280_humidity;BME280_pressure;Samples;Min_cycle;Max_cycle;Signal;HPM_P1;HPM_P2
2023/08/23 00:00:45;;;;;;;;;;;23.50;99.90;;;;;;7609320;19;19923;-76
2023/08/23 00:03:17;;;;;;;;;;;23.40;99.90;;;;;;7610630;19;20615;-76
2023/08/23 00:05:49;;;;;;;;;;;23.40;99.90;;;;;;7607733;19;20356;-77
2023/08/23 00:08:22;;;;;;;;;;;23.30;99.90;;;;;;7610040;19;19926;-75
2023/08/23 00:10:54;;;;;;;;;;;23.30;99.90;;;;;;7610088;19;20299;-76
2023/08/23 00:13:27;;;;;;;;;;;23.30;99.90;;;;;;7610593;19;19919;-75
2023/08/23 00:15:59;;;;;;;;;;;23.20;99.90;;;;;;7604551;19;19919;-76
2023/08/23 00:18:31;;;;;;;;;;;23.10;99.90;;;;;;7612942;19;19952;-77
2023/08/23 00:21:03;;;;;;;;;;;23.10;99.90;;;;;;7596634;19;19960;-76
2023/08/23 00:23:36;;;;;;;;;;;23.20;99.90;;;;;;7608888;19;19925;-76
2023/08/23 00:26:09;;;;;;;;;;;23.40;99.90;;;;;;7604567;19;20539;-75
2023/08/23 00:28:41;;;;;;;;;;;23.50;99.90;;;;;;7609411;19;20269;-74
2023/08/23 00:31:13;;;;;;;;;;;23.40;99.90;;;;;;7604621;19;19922;-74
2023/08/23 00:33:45;;;;;;;;;;;23.50;99.90;;;;;;7608983;19;19915;-74
2023/08/23 00:36:20;;;;;;;;;;;23.50;99.90;;;;;;7603121;19;19993;-74
2023/08/23 00:38:54;;;;;;;;;;;23.40;99.90;;;;;;7608065;19;19959;-74
2023/08/23 00:41:26;;;;;;;;;;;23.40;99.90;;;;;;7603456;19;19919;-74
2023/08/23 00:43:58;;;;;;;;;;;23.30;99.90;;;;;;7604106;19;19922;-74
2023/08/23 00:46:30;;;;;;;;;;;23.30;99.90;;;;;;7604407;19;19922;-75
2023/08/23 00:49:03;;;;;;;;;;;23.20;99.90;;;;;;7602908;19;20361;-74
2023/08/23 00:51:35;;;;;;;;;;;23.10;99.90;;;;;;7605619;19;19922;-76
2023/08/23 00:54:09;;;;;;;;;;;22.90;99.90;;;;;;7602505;19;19967;-76
2023/08/23 00:56:42;;;;;;;;;;;22.80;99.90;;;;;;7612357;19;19927;-74
2023/08/23 00:59:14;;;;;;;;;;;22.80;99.90;;;;;;7613136;19;20609;-75
2023/08/23 01:01:47;;;;;;;;;;;22.70;99.90;;;;;;7612495;19;19947;-74
2023/08/23 01:04:19;;;;;;;;;;;22.60;99.90;;;;;;7609776;19;19933;-75
2023/08/23 01:06:51;;;;;;;;;;;22.70;99.90;;;;;;7606528;19;19919;-74
2023/08/23 01:09:26;;;;;;;;;;;22.90;99.90;;;;;;7611994;19;19951;-78
2023/08/23 01:12:17;;;;;;;;;;;22.80;99.90;;;;;;7611218;19;20205;-75
2023/08/23 01:14:52;;;;;;;;;;;22.80;99.90;;;;;;7609111;19;19978;-73
2023/08/23 01:17:26;;;;;;;;;;;22.60;99.90;;;;;;7614764;19;19915;-74
2023/08/23 01:19:59;;;;;;;;;;;22.50;99.90;;;;;;7608856;19;19922;-74
2023/08/23 01:22:33;;;;;;;;;;;22.50;99.90;;;;;;7611626;19;19954;-75
2023/08/23 01:25:06;;;;;;;;;;;22.50;99.90;;;;;;7608195;19;20535;-75
2023/08/23 01:27:38;;;;;;;;;;;22.50;99.90;;;;;;7614217;19;19931;-74
2023/08/23 01:33:21;;;;;;;;;;;22.50;99.90;;;;;;7610217;19;20029;-77
2023/08/23 01:36:12;;;;;;;;;;;22.40;99.90;;;;;;7601766;19;19978;-76
2023/08/23 01:38:45;;;;;;;;;;;22.40;99.90;;;;;;7615797;19;19925;-77
2023/08/23 01:41:18;;;;;;;;;;;22.40;99.90;;;;;;7612119;19;19930;-77
2023/08/23 01:43:51;;;;;;;;;;;22.40;99.90;;;;;;7614235;19;19918;-77
2023/08/23 01:46:23;;;;;;;;;;;22.30;99.90;;;;;;7606904;19;19918;-77
2023/08/23 01:48:55;;;;;;;;;;;22.30;99.90;;;;;;7613922;19;19927;-76
2023/08/23 01:51:27;;;;;;;;;;;22.30;99.90;;;;;;7606426;19;19986;-76
2023/08/23 01:53:59;;;;;;;;;;;22.30;99.90;;;;;;7613051;19;20230;-76
2023/08/23 01:56:31;;;;;;;;;;;22.30;99.90;;;;;;7611519;19;20331;-77
2023/08/23 01:59:04;;;;;;;;;;;22.30;99.90;;;;;;7613925;19;19966;-77
2023/08/23 02:01:36;;;;;;;;;;;22.30;99.90;;;;;;7613644;19;19957;-78
2023/08/23 02:04:08;;;;;;;;;;;22.20;99.90;;;;;;7608376;19;19978;-77
2023/08/23 02:06:40;;;;;;;;;;;22.20;99.90;;;;;;7607967;19;19927;-76
2023/08/23 02:09:12;;;;;;;;;;;22.20;99.90;;;;;;7612833;19;19930;-76
2023/08/23 02:11:45;;;;;;;;;;;22.10;99.90;;;;;;7614897;19;19990;-77
2023/08/23 02:14:17;;;;;;;;;;;22.10;99.90;;;;;;7605713;19;19922;-74
2023/08/23 02:16:49;;;;;;;;;;;22.10;99.90;;;;;;7614613;19;19918;-77
2023/08/23 02:19:21;;;;;;;;;;;22.00;99.90;;;;;;7615351;19;19918;-77
2023/08/23 02:21:53;;;;;;;;;;;22.00;99.90;;;;;;7613704;19;19927;-75
2023/08/23 02:24:25;;;;;;;;;;;21.90;99.90;;;;;;7614188;19;19922;-77
2023/08/23 02:26:57;;;;;;;;;;;22.00;99.90;;;;;;7613609;19;19919;-77
2023/08/23 02:29:29;;;;;;;;;;;21.90;99.90;;;;;;7610740;19;19919;-76
2023/08/23 02:32:02;;;;;;;;;;;22.00;99.90;;;;;;7614286;19;19922;-77
2023/08/23 02:34:34;;;;;;;;;;;21.90;99.90;;;;;;7607406;19;19954;-77
2023/08/23 02:37:06;;;;;;;;;;;21.90;99.90;;;;;;7612289;19;20262;-76
2023/08/23 02:39:38;;;;;;;;;;;21.90;99.90;;;;;;7608251;19;21330;-75
2023/08/23 02:42:10;;;;;;;;;;;21.90;99.90;;;;;;7615708;19;19937;-75
2023/08/23 02:44:43;;;;;;;;;;;21.90;99.90;;;;;;7611711;19;19937;-77
2023/08/23 02:47:15;;;;;;;;;;;21.90;99.90;;;;;;7613418;19;20290;-77
2023/08/23 02:49:47;;;;;;;;;;;21.90;99.90;;;;;;7611084;19;19926;-76
2023/08/23 02:52:19;;;;;;;;;;;21.80;99.90;;;;;;7608659;19;19974;-76
2023/08/23 02:54:51;;;;;;;;;;;21.70;99.90;;;;;;7609509;19;21015;-77
2023/08/23 02:57:23;;;;;;;;;;;21.70;99.90;;;;;;7607804;19;19923;-76
2023/08/23 02:59:56;;;;;;;;;;;21.70;99.90;;;;;;7614333;19;19923;-76
2023/08/23 03:02:28;;;;;;;;;;;21.70;99.90;;;;;;7608759;19;19962;-76
2023/08/23 03:05:00;;;;;;;;;;;21.70;99.90;;;;;;7613436;19;20838;-77
2023/08/23 03:07:33;;;;;;;;;;;21.80;99.90;;;;;;7605639;19;19993;-76
2023/08/23 03:10:05;;;;;;;;;;;21.80;99.90;;;;;;7603993;19;20033;-76
2023/08/23 03:12:37;;;;;;;;;;;21.80;99.90;;;;;;7636645;19;20550;-76
2023/08/23 03:15:10;;;;;;;;;;;21.70;99.90;;;;;;7627171;19;19929;-77
2023/08/23 03:17:42;;;;;;;;;;;21.70;99.90;;;;;;7621031;19;19919;-75
2023/08/23 03:20:14;;;;;;;;;;;21.70;99.90;;;;;;7620857;19;19994;-77
2023/08/23 03:22:46;;;;;;;;;;;21.80;99.90;;;;;;7620827;19;20493;-76
2023/08/23 03:25:18;;;;;;;;;;;21.70;99.90;;;;;;7614651;19;20340;-76
2023/08/23 03:27:54;;;;;;;;;;;21.70;99.90;;;;;;7614889;19;19926;-76
2023/08/23 03:30:26;;;;;;;;;;;21.70;99.90;;;;;;7617855;19;19926;-77
2023/08/23 03:32:58;;;;;;;;;;;21.80;99.90;;;;;;7618558;19;19929;-77
2023/08/23 03:35:30;;;;;;;;;;;21.70;99.90;;;;;;7608080;19;19934;-75
2023/08/23 03:38:03;;;;;;;;;;;21.70;99.90;;;;;;7616590;19;20945;-75
2023/08/23 03:40:36;;;;;;;;;;;21.70;99.90;;;;;;7613360;19;19922;-75
2023/08/23 03:43:09;;;;;;;;;;;21.70;99.90;;;;;;7613235;19;20563;-77
2023/08/23 03:45:48;;;;;;;;;;;21.70;99.90;;;;;;7610143;19;19934;-77
2023/08/23 03:48:20;;;;;;;;;;;21.70;99.90;;;;;;7611495;19;19918;-75
2023/08/23 03:50:57;;;;;;;;;;;21.70;99.90;;;;;;7614231;19;19934;-75
2023/08/23 03:53:29;;;;;;;;;;;21.60;99.90;;;;;;7610719;19;20300;-75
2023/08/23 03:56:01;;;;;;;;;;;21.60;99.90;;;;;;7611232;19;19930;-75
2023/08/23 03:58:34;;;;;;;;;;;21.60;99.90;;;;;;7611830;19;20773;-75
2023/08/23 04:01:07;;;;;;;;;;;21.60;99.90;;;;;;7611989;19;19922;-77
2023/08/23 04:03:39;;;;;;;;;;;21.60;99.90;;;;;;7610256;19;20259;-75
2023/08/23 04:06:11;;;;;;;;;;;21.50;99.90;;;;;;7607760;19;19936;-76
2023/08/23 04:08:44;;;;;;;;;;;21.60;99.90;;;;;;7610967;19;19927;-76
2023/08/23 04:11:16;;;;;;;;;;;21.70;99.90;;;;;;7609373;19;20010;-75
2023/08/23 04:13:48;;;;;;;;;;;21.70;99.90;;;;;;7612374;19;19938;-77
2023/08/23 04:16:20;;;;;;;;;;;21.60;99.90;;;;;;7608763;19;20498;-77
2023/08/23 04:18:53;;;;;;;;;;;21.60;99.90;;;;;;7608382;19;20915;-76
2023/08/23 04:21:26;;;;;;;;;;;21.60;99.90;;;;;;7614855;19;19931;-75
2023/08/23 04:23:59;;;;;;;;;;;21.80;99.90;;;;;;7611652;19;19946;-76
2023/08/23 04:26:31;;;;;;;;;;;21.70;99.90;;;;;;7610741;19;19984;-75
2023/08/23 04:29:03;;;;;;;;;;;21.70;99.90;;;;;;7609400;19;19926;-75
2023/08/23 04:31:35;;;;;;;;;;;21.80;99.90;;;;;;7616787;19;19993;-76
2023/08/23 04:34:16;;;;;;;;;;;21.90;99.90;;;;;;7617316;19;20847;-76
2023/08/23 04:36:48;;;;;;;;;;;21.90;99.90;;;;;;7613454;19;19955;-76
2023/08/23 04:39:20;;;;;;;;;;;21.80;99.90;;;;;;7614979;19;19918;-75
2023/08/23 04:41:53;;;;;;;;;;;21.80;99.90;;;;;;7614250;19;19925;-76
2023/08/23 04:44:27;;;;;;;;;;;21.70;99.90;;;;;;7609399;19;19922;-76
2023/08/23 04:47:00;;;;;;;;;;;21.80;99.90;;;;;;7612703;19;19922;-75
2023/08/23 04:49:34;;;;;;;;;;;21.90;99.90;;;;;;7613845;19;19918;-75
2023/08/23 04:52:07;;;;;;;;;;;21.70;99.90;;;;;;7600673;19;19934;-77
2023/08/23 04:54:40;;;;;;;;;;;21.70;99.90;;;;;;7615079;19;19929;-76
2023/08/23 04:57:12;;;;;;;;;;;21.60;99.90;;;;;;7612540;19;19943;-77
2023/08/23 04:59:44;;;;;;;;;;;21.60;99.90;;;;;;7615280;19;19918;-77
2023/08/23 05:02:17;;;;;;;;;;;21.80;99.90;;;;;;7613310;19;19990;-76
2023/08/23 05:04:51;;;;;;;;;;;21.70;99.90;;;;;;7613973;19;19933;-77
2023/08/23 05:07:23;;;;;;;;;;;21.70;99.90;;;;;;7612774;19;19934;-76
2023/08/23 05:09:56;;;;;;;;;;;21.60;99.90;;;;;;7612902;19;19922;-75
2023/08/23 05:12:28;;;;;;;;;;;21.50;99.90;;;;;;7614997;19;19915;-76
2023/08/23 05:15:00;;;;;;;;;;;21.50;99.90;;;;;;7613622;19;19937;-78
2023/08/23 05:17:34;;;;;;;;;;;21.50;99.90;;;;;;7615170;19;20297;-76
2023/08/23 05:20:10;;;;;;;;;;;21.50;99.90;;;;;;7614242;19;19926;-77
2023/08/23 05:22:43;;;;;;;;;;;21.50;99.90;;;;;;7617145;19;19933;-77
2023/08/23 05:25:15;;;;;;;;;;;21.50;99.90;;;;;;7614003;19;19921;-76
2023/08/23 05:27:47;;;;;;;;;;;21.50;99.90;;;;;;7613702;19;20006;-76
2023/08/23 05:30:21;;;;;;;;;;;21.50;99.90;;;;;;7613754;19;20284;-76
2023/08/23 05:32:53;;;;;;;;;;;21.50;99.90;;;;;;7618583;19;19930;-77
2023/08/23 05:35:26;;;;;;;;;;;21.60;99.90;;;;;;7605942;19;19950;-78
2023/08/23 05:37:58;;;;;;;;;;;21.50;99.90;;;;;;7616362;19;20269;-75
2023/08/23 05:40:30;;;;;;;;;;;21.60;99.90;;;;;;7612979;19;20006;-77
2023/08/23 05:43:03;;;;;;;;;;;21.60;99.90;;;;;;7613641;19;19942;-75
2023/08/23 05:45:35;;;;;;;;;;;21.60;99.90;;;;;;7618598;19;19914;-76
2023/08/23 05:48:07;;;;;;;;;;;21.60;99.90;;;;;;7616811;19;19918;-77
2023/08/23 05:50:39;;;;;;;;;;;21.60;99.90;;;;;;7604170;19;19925;-77
2023/08/23 05:53:18;;;;;;;;;;;21.60;99.90;;;;;;7618405;19;19918;-76
2023/08/23 05:55:51;;;;;;;;;;;21.60;99.90;;;;;;7616350;19;19931;-76
2023/08/23 05:58:24;;;;;;;;;;;21.70;99.90;;;;;;7616028;19;19918;-75
2023/08/23 06:00:57;;;;;;;;;;;21.80;99.90;;;;;;7616174;19;21148;-77
2023/08/23 06:03:29;;;;;;;;;;;21.90;99.90;;;;;;7614146;19;20338;-77
2023/08/23 06:06:02;;;;;;;;;;;21.90;99.90;;;;;;7614465;19;19918;-77
2023/08/23 06:08:34;;;;;;;;;;;22.00;99.90;;;;;;7617582;19;20848;-76
2023/08/23 06:11:06;;;;;;;;;;;22.10;99.90;;;;;;7617824;19;19926;-76
2023/08/23 06:13:42;;;;;;;;;;;22.30;99.90;;;;;;7613364;19;20351;-77
2023/08/23 06:16:14;;;;;;;;;;;22.40;99.90;;;;;;7616240;19;19971;-77
2023/08/23 06:18:47;;;;;;;;;;;22.50;99.90;;;;;;7614941;19;19943;-76
2023/08/23 06:21:19;;;;;;;;;;;22.60;99.90;;;;;;7615920;19;20455;-77
2023/08/23 06:23:51;;;;;;;;;;;22.70;99.90;;;;;;7613997;19;19919;-77
2023/08/23 06:26:23;;;;;;;;;;;22.80;99.90;;;;;;7615855;19;20559;-76
2023/08/23 06:28:55;;;;;;;;;;;23.00;99.90;;;;;;7617796;19;19926;-77
2023/08/23 06:31:27;;;;;;;;;;;23.20;99.90;;;;;;7610961;19;19926;-77
2023/08/23 06:34:00;;;;;;;;;;;23.30;99.90;;;;;;7617190;19;19962;-77
2023/08/23 06:36:32;;;;;;;;;;;23.30;99.90;;;;;;7607193;19;20698;-76
2023/08/23 06:39:04;;;;;;;;;;;23.60;99.90;;;;;;7620828;19;21056;-77
2023/08/23 06:41:39;;;;;;;;;;;23.60;99.90;;;;;;7622548;19;19926;-77
2023/08/23 06:44:11;;;;;;;;;;;23.80;99.90;;;;;;7608315;19;19930;-78
2023/08/23 06:46:43;;;;;;;;;;;23.90;99.90;;;;;;7611406;19;19927;-76
2023/08/23 06:49:16;;;;;;;;;;;24.00;99.90;;;;;;7616349;19;19953;-75
2023/08/23 06:51:48;;;;;;;;;;;24.20;99.90;;;;;;7609800;19;19948;-77
2023/08/23 06:54:20;;;;;;;;;;;24.10;99.90;;;;;;7613959;19;19944;-77
2023/08/23 06:56:52;;;;;;;;;;;24.20;99.90;;;;;;7618985;19;19910;-77
2023/08/23 06:59:24;;;;;;;;;;;24.40;99.90;;;;;;7619779;19;19915;-75
2023/08/23 07:01:56;;;;;;;;;;;24.50;99.90;;;;;;7614680;19;20344;-75
2023/08/23 07:04:29;;;;;;;;;;;24.50;99.90;;;;;;7608956;19;20888;-76
2023/08/23 07:07:01;;;;;;;;;;;24.60;99.90;;;;;;7610401;19;19926;-77
2023/08/23 07:09:33;;;;;;;;;;;24.70;99.90;;;;;;7615760;19;19914;-75
2023/08/23 07:12:05;;;;;;;;;;;24.80;99.90;;;;;;7616875;19;19926;-76
2023/08/23 07:14:37;;;;;;;;;;;24.90;99.90;;;;;;7609687;19;19930;-76
2023/08/23 07:17:09;;;;;;;;;;;25.00;99.90;;;;;;7613957;19;20529;-76
2023/08/23 07:19:42;;;;;;;;;;;25.10;99.90;;;;;;7608741;19;20403;-77
2023/08/23 07:22:15;;;;;;;;;;;25.30;99.90;;;;;;7614092;19;19922;-76
2023/08/23 07:24:47;;;;;;;;;;;25.40;99.90;;;;;;7610826;19;19918;-76
2023/08/23 07:27:19;;;;;;;;;;;25.50;99.90;;;;;;7613927;19;20429;-77
2023/08/23 07:29:51;;;;;;;;;;;25.70;99.90;;;;;;7607633;19;19919;-77
2023/08/23 07:32:24;;;;;;;;;;;25.60;99.90;;;;;;7612285;19;19927;-76
2023/08/23 07:34:56;;;;;;;;;;;25.70;99.90;;;;;;7609292;19;19946;-77
2023/08/23 07:37:28;;;;;;;;;;;25.80;99.90;;;;;;7613254;19;19965;-76
2023/08/23 07:40:01;;;;;;;;;;;25.90;99.90;;;;;;7611977;19;19918;-76
2023/08/23 07:42:33;;;;;;;;;;;26.00;99.90;;;;;;7610360;19;19919;-77
2023/08/23 07:45:06;;;;;;;;;;;26.20;99.90;;;;;;7609533;19;19934;-77
2023/08/23 07:47:38;;;;;;;;;;;26.30;99.90;;;;;;7613481;19;19918;-76
2023/08/23 07:50:10;;;;;;;;;;;26.30;99.90;;;;;;7615366;19;19915;-76
2023/08/23 07:52:42;;;;;;;;;;;26.20;99.90;;;;;;7610887;19;20278;-77
2023/08/23 07:55:15;;;;;;;;;;;26.40;99.90;;;;;;7612133;19;19933;-77
2023/08/23 07:57:47;;;;;;;;;;;26.60;99.90;;;;;;7610903;19;19939;-76
2023/08/23 08:00:21;;;;;;;;;;;26.90;99.90;;;;;;7616310;19;20470;-77
2023/08/23 08:02:53;;;;;;;;;;;27.00;99.90;;;;;;7608913;19;20028;-77
2023/08/23 08:05:25;;;;;;;;;;;27.10;99.90;;;;;;7606849;19;20467;-78
2023/08/23 08:07:57;;;;;;;;;;;27.30;99.90;;;;;;7609138;19;19918;-77
2023/08/23 08:10:40;;;;;;;;;;;27.40;99.90;;;;;;7609835;19;20806;-77
2023/08/23 08:13:12;;;;;;;;;;;27.50;99.90;;;;;;7611797;19;20030;-77
2023/08/23 08:15:44;;;;;;;;;;;27.50;99.90;;;;;;7605855;19;20487;-76
2023/08/23 08:18:16;;;;;;;;;;;27.30;99.90;;;;;;7612843;19;19922;-77
2023/08/23 08:20:48;;;;;;;;;;;27.10;99.90;;;;;;7607188;19;19922;-75
2023/08/23 08:23:21;;;;;;;;;;;27.30;99.90;;;;;;7610014;19;20037;-76
2023/08/23 08:25:53;;;;;;;;;;;27.40;99.90;;;;;;7603261;19;23696;-76
2023/08/23 08:28:25;;;;;;;;;;;27.60;99.90;;;;;;7608680;19;19927;-76
2023/08/23 08:30:57;;;;;;;;;;;27.60;99.90;;;;;;7605859;19;19923;-76
2023/08/23 08:33:29;;;;;;;;;;;27.70;99.90;;;;;;7610337;19;19926;-75
2023/08/23 08:36:02;;;;;;;;;;;27.70;99.90;;;;;;7602616;19;19943;-76
2023/08/23 08:38:34;;;;;;;;;;;27.70;99.90;;;;;;7609459;19;19933;-74
2023/08/23 08:41:08;;;;;;;;;;;27.70;99.90;;;;;;7609725;19;20738;-74
2023/08/23 08:43:40;;;;;;;;;;;27.90;99.90;;;;;;7605233;19;19944;-75
2023/08/23 08:46:13;;;;;;;;;;;28.10;99.90;;;;;;7607658;19;19935;-74
2023/08/23 08:48:45;;;;;;;;;;;28.20;99.90;;;;;;7607264;19;19927;-74
2023/08/23 08:51:20;;;;;;;;;;;28.20;99.50;;;;;;7608570;19;19958;-76
2023/08/23 08:53:54;;;;;;;;;;;28.30;99.40;;;;;;7604760;19;19943;-75
2023/08/23 08:56:26;;;;;;;;;;;28.30;99.90;;;;;;7606712;19;19982;-76
2023/08/23 08:58:58;;;;;;;;;;;28.30;99.60;;;;;;7604302;19;19914;-74
2023/08/23 09:01:32;;;;;;;;;;;28.30;99.40;;;;;;7594056;19;19915;-74
2023/08/23 09:04:04;;;;;;;;;;;28.30;99.70;;;;;;7589488;19;20754;-76
2023/08/23 09:06:37;;;;;;;;;;;28.40;99.20;;;;;;7605222;19;20277;-75
2023/08/23 09:09:10;;;;;;;;;;;28.30;99.60;;;;;;7601066;19;19930;-74
2023/08/23 09:11:42;;;;;;;;;;;28.30;99.00;;;;;;7596984;19;19918;-76
2023/08/23 09:14:16;;;;;;;;;;;28.30;99.90;;;;;;7607577;19;19933;-77
2023/08/23 09:16:48;;;;;;;;;;;28.30;99.40;;;;;;7610117;19;19910;-75
2023/08/23 09:19:20;;;;;;;;;;;28.40;99.20;;;;;;7614239;19;19918;-76
2023/08/23 09:21:53;;;;;;;;;;;28.40;99.40;;;;;;7611091;19;19951;-76
2023/08/23 09:24:25;;;;;;;;;;;28.50;99.50;;;;;;7613227;19;19914;-77
2023/08/23 09:26:58;;;;;;;;;;;28.50;99.20;;;;;;7609326;19;19949;-76
2023/08/23 09:29:31;;;;;;;;;;;28.60;98.40;;;;;;7615079;19;20852;-75
2023/08/23 09:32:04;;;;;;;;;;;28.60;98.40;;;;;;7612440;19;20501;-75
2023/08/23 09:34:36;;;;;;;;;;;28.70;98.60;;;;;;7615751;19;19964;-76
2023/08/23 09:37:08;;;;;;;;;;;28.70;98.30;;;;;;7611718;19;19919;-76
2023/08/23 09:39:41;;;;;;;;;;;28.80;98.30;;;;;;7618844;19;20558;-76
2023/08/23 09:42:13;;;;;;;;;;;28.90;98.40;;;;;;7614594;19;19915;-77
2023/08/23 09:44:47;;;;;;;;;;;28.90;98.20;;;;;;7611085;19;20607;-75
2023/08/23 09:47:24;;;;;;;;;;;28.60;97.60;;;;;;7613596;19;19926;-74
2023/08/23 09:49:58;;;;;;;;;;;28.70;97.40;;;;;;7605771;19;20850;-75
2023/08/23 09:52:31;;;;;;;;;;;28.70;97.50;;;;;;7606677;19;19922;-76
2023/08/23 09:55:05;;;;;;;;;;;28.70;97.60;;;;;;7606941;19;19994;-75
2023/08/23 09:57:46;;;;;;;;;;;28.80;97.40;;;;;;7614192;19;19949;-75
2023/08/23 10:00:21;;;;;;;;;;;29.00;96.90;;;;;;7612707;19;19915;-74
2023/08/23 10:02:53;;;;;;;;;;;29.10;97.30;;;;;;7612741;19;20265;-76
2023/08/23 10:05:26;;;;;;;;;;;29.30;97.30;;;;;;7619781;19;20014;-75
2023/08/23 10:08:01;;;;;;;;;;;29.40;96.50;;;;;;7614227;19;19922;-74
2023/08/23 10:10:33;;;;;;;;;;;29.60;96.90;;;;;;7620533;19;19934;-76
2023/08/23 10:13:06;;;;;;;;;;;29.70;96.10;;;;;;7609466;19;19996;-76
2023/08/23 10:15:39;;;;;;;;;;;29.80;95.40;;;;;;7613195;19;19922;-74
2023/08/23 10:18:12;;;;;;;;;;;29.70;95.00;;;;;;7610479;19;19915;-74
2023/08/23 10:20:44;;;;;;;;;;;29.60;95.00;;;;;;7610135;19;19950;-74
2023/08/23 10:23:17;;;;;;;;;;;29.70;95.40;;;;;;7615351;19;19950;-76
2023/08/23 10:25:49;;;;;;;;;;;29.70;95.20;;;;;;7607483;19;20414;-75
2023/08/23 10:28:21;;;;;;;;;;;29.50;95.20;;;;;;7612594;19;19922;-75
2023/08/23 10:30:53;;;;;;;;;;;29.70;95.40;;;;;;7609163;19;19926;-74
2023/08/23 10:33:39;;;;;;;;;;;29.90;95.20;;;;;;7615510;19;20033;-76
2023/08/23 10:36:20;;;;;;;;;;;30.20;94.70;;;;;;7609518;19;19935;-75
2023/08/23 10:38:53;;;;;;;;;;;30.40;94.50;;;;;;7616702;19;20357;-75
2023/08/23 10:41:28;;;;;;;;;;;30.40;94.20;;;;;;7611442;19;19982;-75
2023/08/23 10:44:01;;;;;;;;;;;30.10;94.00;;;;;;7609784;19;19930;-76
2023/08/23 10:46:42;;;;;;;;;;;30.10;94.40;;;;;;7612884;19;19970;-76
2023/08/23 10:49:16;;;;;;;;;;;30.40;94.20;;;;;;7611379;19;19915;-76
2023/08/23 10:51:49;;;;;;;;;;;30.50;93.10;;;;;;7611000;19;19986;-77
2023/08/23 10:54:23;;;;;;;;;;;30.70;92.60;;;;;;7614288;19;19926;-76
2023/08/23 10:56:55;;;;;;;;;;;30.70;93.00;;;;;;7608694;19;19923;-76
2023/08/23 10:59:27;;;;;;;;;;;30.70;92.70;;;;;;7614328;19;20294;-75
2023/08/23 11:02:00;;;;;;;;;;;30.80;91.50;;;;;;7611928;19;19964;-76
2023/08/23 11:04:33;;;;;;;;;;;30.80;92.30;;;;;;7612906;19;19925;-76
2023/08/23 11:07:06;;;;;;;;;;;31.00;91.80;;;;;;7607560;19;19923;-75
2023/08/23 11:09:38;;;;;;;;;;;30.90;91.60;;;;;;7611930;19;19954;-75
2023/08/23 11:12:11;;;;;;;;;;;30.80;91.70;;;;;;7612256;19;20253;-77
2023/08/23 11:14:43;;;;;;;;;;;30.60;91.20;;;;;;7612233;19;19914;-74
2023/08/23 11:17:15;;;;;;;;;;;30.40;92.30;;;;;;7609334;19;19922;-76
2023/08/23 11:19:47;;;;;;;;;;;30.10;91.80;;;;;;7602328;19;19927;-76
2023/08/23 11:22:19;;;;;;;;;;;30.00;92.40;;;;;;7607802;19;19927;-75
2023/08/23 11:24:52;;;;;;;;;;;30.10;93.20;;;;;;7609476;19;19919;-74
2023/08/23 11:27:24;;;;;;;;;;;30.40;93.30;;;;;;7614227;19;20731;-76
2023/08/23 11:29:58;;;;;;;;;;;30.90;92.30;;;;;;7611830;19;20579;-75
2023/08/23 11:32:30;;;;;;;;;;;31.00;92.50;;;;;;7613781;19;19926;-75
2023/08/23 11:35:05;;;;;;;;;;;31.10;91.40;;;;;;7610377;19;19918;-75
2023/08/23 11:37:37;;;;;;;;;;;31.40;91.90;;;;;;7614569;19;19922;-77
2023/08/23 11:40:12;;;;;;;;;;;31.70;90.90;;;;;;7606339;19;19911;-76
2023/08/23 11:42:45;;;;;;;;;;;31.80;90.80;;;;;;7613266;19;19926;-77
2023/08/23 11:45:17;;;;;;;;;;;32.20;90.40;;;;;;7611453;19;19997;-76
2023/08/23 11:47:55;;;;;;;;;;;32.30;90.20;;;;;;7614958;19;19935;-75
2023/08/23 11:50:28;;;;;;;;;;;32.50;89.30;;;;;;7610183;19;19934;-77
2023/08/23 11:53:04;;;;;;;;;;;32.50;89.30;;;;;;7608191;19;19922;-76
2023/08/23 11:55:41;;;;;;;;;;;32.80;88.90;;;;;;7609161;19;19918;-76
2023/08/23 11:58:13;;;;;;;;;;;33.10;89.40;;;;;;7610431;19;19926;-75
2023/08/23 12:00:47;;;;;;;;;;;32.80;86.20;;;;;;7614232;19;20336;-77
2023/08/23 12:03:19;;;;;;;;;;;32.90;88.20;;;;;;7610672;19;20385;-77
2023/08/23 12:05:51;;;;;;;;;;;33.00;86.90;;;;;;7606956;19;19929;-76
2023/08/23 12:08:23;;;;;;;;;;;32.70;87.60;;;;;;7618637;19;19942;-76
2023/08/23 12:10:55;;;;;;;;;;;32.50;87.90;;;;;;7607582;19;19918;-75
2023/08/23 12:13:27;;;;;;;;;;;32.20;88.90;;;;;;7609545;19;19952;-74
2023/08/23 12:15:59;;;;;;;;;;;32.00;88.90;;;;;;7596104;19;19922;-75
2023/08/23 12:18:32;;;;;;;;;;;31.90;89.00;;;;;;7613082;19;19923;-75
2023/08/23 12:21:04;;;;;;;;;;;31.70;89.30;;;;;;7604581;19;19987;-76
2023/08/23 12:23:36;;;;;;;;;;;31.50;90.40;;;;;;7608990;19;20749;-76
2023/08/23 12:26:09;;;;;;;;;;;31.50;90.20;;;;;;7606388;19;19922;-74
2023/08/23 12:28:42;;;;;;;;;;;31.70;91.20;;;;;;7611819;19;19938;-75
2023/08/23 12:31:16;;;;;;;;;;;32.10;90.40;;;;;;7602904;19;19926;-75
2023/08/23 12:33:48;;;;;;;;;;;32.30;87.10;;;;;;7608091;19;19919;-76
2023/08/23 12:36:20;;;;;;;;;;;32.40;86.60;;;;;;7603731;19;19946;-75
2023/08/23 12:38:52;;;;;;;;;;;32.50;85.80;;;;;;7610367;19;19961;-74
2023/08/23 12:41:27;;;;;;;;;;;32.40;88.60;;;;;;7611272;19;20775;-75
2023/08/23 12:44:01;;;;;;;;;;;32.80;87.70;;;;;;7607004;19;19927;-74
2023/08/23 12:46:33;;;;;;;;;;;33.40;86.20;;;;;;7606559;19;20320;-74
2023/08/23 12:49:12;;;;;;;;;;;34.00;83.60;;;;;;7606624;19;19950;-75
2023/08/23 12:51:45;;;;;;;;;;;34.20;82.50;;;;;;7612716;19;19923;-76
2023/08/23 12:54:18;;;;;;;;;;;34.10;81.90;;;;;;7614527;19;21031;-76
2023/08/23 12:56:50;;;;;;;;;;;33.80;81.00;;;;;;7620133;19;19922;-76
2023/08/23 12:59:22;;;;;;;;;;;33.50;82.30;;;;;;7617470;19;19958;-75
2023/08/23 13:01:56;;;;;;;;;;;33.00;83.00;;;;;;7619714;19;21073;-76
2023/08/23 13:04:28;;;;;;;;;;;32.80;83.20;;;;;;7612304;19;20561;-75
2023/08/23 13:07:01;;;;;;;;;;;33.00;83.50;;;;;;7611371;19;19918;-76
2023/08/23 13:09:33;;;;;;;;;;;32.80;84.00;;;;;;7614995;19;19926;-75
2023/08/23 13:12:05;;;;;;;;;;;32.50;83.00;;;;;;7616080;19;19963;-75
2023/08/23 13:14:38;;;;;;;;;;;32.40;83.60;;;;;;7611091;19;19926;-74
2023/08/23 13:17:10;;;;;;;;;;;32.30;85.00;;;;;;7610134;19;20545;-75
2023/08/23 13:19:42;;;;;;;;;;;32.00;84.30;;;;;;7611728;19;20032;-75
2023/08/23 13:22:14;;;;;;;;;;;31.90;85.80;;;;;;7613536;19;19919;-76
2023/08/23 13:24:48;;;;;;;;;;;31.90;84.90;;;;;;7615074;19;19952;-75
2023/08/23 13:27:21;;;;;;;;;;;32.00;85.40;;;;;;7610268;19;20448;-76
2023/08/23 13:29:53;;;;;;;;;;;32.40;85.80;;;;;;7618598;19;19910;-76
2023/08/23 13:32:25;;;;;;;;;;;32.70;83.10;;;;;;7613389;19;19926;-76
2023/08/23 13:34:59;;;;;;;;;;;33.40;83.50;;;;;;7611071;19;19923;-74
2023/08/23 13:37:32;;;;;;;;;;;33.40;81.70;;;;;;7617893;19;19919;-76
2023/08/23 13:40:06;;;;;;;;;;;33.30;81.70;;;;;;7606610;19;19931;-74
2023/08/23 13:42:38;;;;;;;;;;;33.10;82.40;;;;;;7615729;19;19918;-74
2023/08/23 13:45:12;;;;;;;;;;;32.80;82.00;;;;;;7609718;19;20281;-75
2023/08/23 13:47:44;;;;;;;;;;;32.50;83.00;;;;;;7612283;19;19925;-74
2023/08/23 13:50:16;;;;;;;;;;;32.10;83.80;;;;;;7612460;19;19926;-75
2023/08/23 13:52:48;;;;;;;;;;;31.90;85.20;;;;;;7612660;19;20458;-76
2023/08/23 13:55:21;;;;;;;;;;;31.60;85.10;;;;;;7612325;19;19926;-75
2023/08/23 13:57:53;;;;;;;;;;;31.60;85.70;;;;;;7613097;19;20422;-76
2023/08/23 14:00:26;;;;;;;;;;;31.70;87.10;;;;;;7612145;19;20327;-76
2023/08/23 14:02:58;;;;;;;;;;;31.90;84.30;;;;;;7611870;19;19926;-75
2023/08/23 14:05:30;;;;;;;;;;;32.10;85.40;;;;;;7594744;19;19994;-75
2023/08/23 14:08:03;;;;;;;;;;;32.20;84.00;;;;;;7605822;19;19914;-74
2023/08/23 14:10:35;;;;;;;;;;;32.40;84.70;;;;;;7614402;19;19928;-74
2023/08/23 14:13:07;;;;;;;;;;;32.80;82.40;;;;;;7617120;19;19956;-74
2023/08/23 14:15:39;;;;;;;;;;;32.80;82.00;;;;;;7609731;19;21556;-75
2023/08/23 14:18:11;;;;;;;;;;;32.50;82.60;;;;;;7615299;19;20463;-76
2023/08/23 14:20:43;;;;;;;;;;;32.20;83.60;;;;;;7610975;19;20002;-76
2023/08/23 14:23:16;;;;;;;;;;;32.00;84.80;;;;;;7613256;19;19952;-75
2023/08/23 14:25:48;;;;;;;;;;;31.80;85.60;;;;;;7609503;19;19943;-76
2023/08/23 14:28:20;;;;;;;;;;;31.50;84.90;;;;;;7609216;19;19945;-76
2023/08/23 14:30:55;;;;;;;;;;;31.30;85.30;;;;;;7612331;19;19926;-74
2023/08/23 14:33:27;;;;;;;;;;;31.20;85.80;;;;;;7612348;19;19926;-75
2023/08/23 14:35:59;;;;;;;;;;;31.10;85.80;;;;;;7606583;19;20577;-76
2023/08/23 14:38:31;;;;;;;;;;;31.00;86.40;;;;;;7610784;19;19915;-74
2023/08/23 14:41:04;;;;;;;;;;;31.00;87.00;;;;;;7598092;19;19918;-74
2023/08/23 14:43:37;;;;;;;;;;;31.00;86.80;;;;;;7608082;19;19922;-75
2023/08/23 14:46:09;;;;;;;;;;;31.10;86.60;;;;;;7603844;19;19998;-76
2023/08/23 14:48:41;;;;;;;;;;;31.30;87.00;;;;;;7605724;19;19923;-74
2023/08/23 14:51:13;;;;;;;;;;;31.40;85.40;;;;;;7610290;19;19951;-76